WADDYPPD

Guest
Details From WADD - Denpasar Ngurah Rai Intl
To YPPD - Port Hedland Intl
Flight Number -
Tags Generated
Created
Modified
Stats Distance 727 nm / 1,346 km
Max Altitude 0 ft / 0 m
Waypoints 3
Social Downloads 1
Likes 0
Share VATSIM

Download

Looking for another format? Having issues loading an existing format? Contact us
Advertisement - Login to hide

Notes

Generated

Route

WADD PPDNG YPPD

ID Type Via Altitude Latitude Longitude Leg Dist Tot Dist Heading (true) Name
O WADD APT - 0 ft / 0 m -8.74871˚ 115.15363˚ - 0 nm - -
PPDNG FIX - 0 ft / 0 m -20.17329˚ 118.53925˚ 713 nm 713 nm 164° / 164° -
O YPPD APT - 0 ft / 0 m -20.37029˚ 118.62929˚ 12 nm 726 nm 157° / 157° -

Altitude Profile

Advertisement - Login to hide

Weather


0- 5 10 15 20 25 30 35+ Temperature / ° C

Clouds and Precipitation
Forecast for 2018-05-27 18:00 UTC. Updated 2 hours ago

Ground ~20,000 ft ~40,000 ft Winds

WADD

Details ICAO WADD (DPS)
Name Denpasar Ngurah Rai Intl
Region Indonesia
Timezone Asia/Makassar (UTC+8.0)
Stats Elevation 14 ft / 4 m (AMSL)
Location -8.748169° 115.167174°
Runways 1
Magnetic Variation 1.024° E

METAR

Not found

TAF

TAF WADD 271700Z 2718/2818 10010KT 9999 SCT017

Decode

Departure Runways

ID Width Length Bearing (true) Bearing (mag) Surface Threshold Offset Overrun Length
09 148 ft / 45 m 9,779 ft / 2,981 m 87.71° 86.69° Asphalt 121 ft / 37 m 75 ft / 23 m
27 148 ft / 45 m 9,779 ft / 2,981 m 267.70° 266.68° Asphalt 0 ft / 0 m 197 ft / 60 m

YPPD

Details ICAO YPPD (PHE)
Name Port Hedland Intl
Region Australia
Timezone Australia/Perth (UTC+8.0)
Stats Elevation 33 ft / 10 m (AMSL)
Location -20.378551° 118.629429°
Runways 2
Magnetic Variation 1.245° E

METAR

YPPD 271930Z AUTO 14007KT 9999 // NCD 19/07 Q1016

Decode

TAF

TAF YPPD 271707Z 2718/2818 14008KT CAVOK FM280100 12016G26KT CAVOK FM280400 12010KT CAVOK

Decode

Destination Runways

ID Width Length Bearing (true) Bearing (mag) Surface Threshold Offset Overrun Length
14 148 ft / 45 m 8,216 ft / 2,504 m 137.60° 136.36° Asphalt 0 ft / 0 m 0 ft / 0 m
18 59 ft / 18 m 3,292 ft / 1,003 m 2.40° 1.16° Asphalt 0 ft / 0 m 0 ft / 0 m
32 148 ft / 45 m 8,216 ft / 2,504 m 317.60° 316.36° Asphalt 0 ft / 0 m 0 ft / 0 m
36 59 ft / 18 m 3,292 ft / 1,003 m 182.40° 181.16° Asphalt 0 ft / 0 m 0 ft / 0 m

Popular Alternatives